sensor_id;sensor_type;location;lat;lon;timestamp;temperature;humidity
18260;DHT22;9256;52.236;5.712;2024-03-07T00:00:45;3.30;99.90
18260;DHT22;9256;52.236;5.712;2024-03-07T00:03:13;3.30;99.90
18260;DHT22;9256;52.236;5.712;2024-03-07T00:05:40;3.30;99.90
18260;DHT22;9256;52.236;5.712;2024-03-07T00:08:07;3.30;99.90
18260;DHT22;9256;52.236;5.712;2024-03-07T00:10:35;3.30;99.90
18260;DHT22;9256;52.236;5.712;2024-03-07T00:13:03;3.20;99.90
18260;DHT22;9256;52.236;5.712;2024-03-07T00:15:33;3.10;99.90
18260;DHT22;9256;52.236;5.712;2024-03-07T00:18:01;2.90;99.90
18260;DHT22;9256;52.236;5.712;2024-03-07T00:20:28;2.80;99.90
18260;DHT22;9256;52.236;5.712;2024-03-07T00:22:54;2.90;99.90
18260;DHT22;9256;52.236;5.712;2024-03-07T00:25:22;2.90;99.90
18260;DHT22;9256;52.236;5.712;2024-03-07T00:27:49;3.00;99.90
18260;DHT22;9256;52.236;5.712;2024-03-07T00:30:18;2.90;99.90
18260;DHT22;9256;52.236;5.712;2024-03-07T00:32:47;3.10;99.90
18260;DHT22;9256;52.236;5.712;2024-03-07T00:35:14;3.00;99.90
18260;DHT22;9256;52.236;5.712;2024-03-07T00:37:41;2.90;99.90
18260;DHT22;9256;52.236;5.712;2024-03-07T00:40:09;2.90;99.90
18260;DHT22;9256;52.236;5.712;2024-03-07T00:42:38;2.90;99.90
18260;DHT22;9256;52.236;5.712;2024-03-07T00:45:06;2.90;99.90
18260;DHT22;9256;52.236;5.712;2024-03-07T00:47:33;2.90;99.90
18260;DHT22;9256;52.236;5.712;2024-03-07T00:50:01;2.80;99.90
18260;DHT22;9256;52.236;5.712;2024-03-07T00:52:28;2.80;99.90
18260;DHT22;9256;52.236;5.712;2024-03-07T00:54:55;2.90;99.90
18260;DHT22;9256;52.236;5.712;2024-03-07T00:57:22;2.90;99.90
18260;DHT22;9256;52.236;5.712;2024-03-07T00:59:49;2.80;99.90
18260;DHT22;9256;52.236;5.712;2024-03-07T01:02:16;2.90;99.90
18260;DHT22;9256;52.236;5.712;2024-03-07T01:04:44;2.90;99.90
18260;DHT22;9256;52.236;5.712;2024-03-07T01:07:12;2.90;99.90
18260;DHT22;9256;52.236;5.712;2024-03-07T01:09:39;2.80;99.90
18260;DHT22;9256;52.236;5.712;2024-03-07T01:12:06;2.80;99.90
18260;DHT22;9256;52.236;5.712;2024-03-07T01:14:35;2.80;99.90
18260;DHT22;9256;52.236;5.712;2024-03-07T01:17:02;2.60;99.90
18260;DHT22;9256;52.236;5.712;2024-03-07T01:19:32;2.40;99.90
18260;DHT22;9256;52.236;5.712;2024-03-07T01:21:59;2.40;99.90
18260;DHT22;9256;52.236;5.712;2024-03-07T01:24:27;2.40;99.90
18260;DHT22;9256;52.236;5.712;2024-03-07T01:26:55;2.40;99.90
18260;DHT22;9256;52.236;5.712;2024-03-07T01:29:22;2.50;99.90
18260;DHT22;9256;52.236;5.712;2024-03-07T01:31:49;2.50;99.90
18260;DHT22;9256;52.236;5.712;2024-03-07T01:34:15;2.50;99.90
18260;DHT22;9256;52.236;5.712;2024-03-07T01:36:42;2.50;99.90
18260;DHT22;9256;52.236;5.712;2024-03-07T01:39:10;2.50;99.90
18260;DHT22;9256;52.236;5.712;2024-03-07T01:41:39;2.50;99.90
18260;DHT22;9256;52.236;5.712;2024-03-07T01:44:07;2.50;99.90
18260;DHT22;9256;52.236;5.712;2024-03-07T01:46:34;2.60;99.90
18260;DHT22;9256;52.236;5.712;2024-03-07T01:49:01;2.60;99.90
18260;DHT22;9256;52.236;5.712;2024-03-07T01:51:28;2.50;99.90
18260;DHT22;9256;52.236;5.712;2024-03-07T01:53:55;2.50;99.90
18260;DHT22;9256;52.236;5.712;2024-03-07T01:56:23;2.50;99.90
18260;DHT22;9256;52.236;5.712;2024-03-07T01:58:52;2.50;99.90
18260;DHT22;9256;52.236;5.712;2024-03-07T02:01:20;2.40;99.90
18260;DHT22;9256;52.236;5.712;2024-03-07T02:03:47;2.40;99.90
18260;DHT22;9256;52.236;5.712;2024-03-07T02:06:14;2.40;99.90
18260;DHT22;9256;52.236;5.712;2024-03-07T02:08:41;2.40;99.90
18260;DHT22;9256;52.236;5.712;2024-03-07T02:11:08;2.30;99.90
18260;DHT22;9256;52.236;5.712;2024-03-07T02:13:36;2.40;99.90
18260;DHT22;9256;52.236;5.712;2024-03-07T02:16:05;2.40;99.90
18260;DHT22;9256;52.236;5.712;2024-03-07T02:18:33;2.30;99.90
18260;DHT22;9256;52.236;5.712;2024-03-07T02:21:06;2.30;99.90
18260;DHT22;9256;52.236;5.712;2024-03-07T02:23:33;2.20;99.90
18260;DHT22;9256;52.236;5.712;2024-03-07T02:26:00;2.10;99.90
18260;DHT22;9256;52.236;5.712;2024-03-07T02:28:27;2.20;99.90
18260;DHT22;9256;52.236;5.712;2024-03-07T02:30:54;2.10;99.90
18260;DHT22;9256;52.236;5.712;2024-03-07T02:33:21;2.20;99.90
18260;DHT22;9256;52.236;5.712;2024-03-07T02:35:49;2.20;99.90
18260;DHT22;9256;52.236;5.712;2024-03-07T02:38:17;2.00;99.90
18260;DHT22;9256;52.236;5.712;2024-03-07T02:40:45;1.90;99.90
18260;DHT22;9256;52.236;5.712;2024-03-07T02:43:12;1.80;99.90
18260;DHT22;9256;52.236;5.712;2024-03-07T02:45:39;1.70;99.90
18260;DHT22;9256;52.236;5.712;2024-03-07T02:48:07;1.70;99.90
18260;DHT22;9256;52.236;5.712;2024-03-07T02:50:35;1.80;99.90
18260;DHT22;9256;52.236;5.712;2024-03-07T02:53:03;1.80;99.90
18260;DHT22;9256;52.236;5.712;2024-03-07T02:55:31;1.80;99.90
18260;DHT22;9256;52.236;5.712;2024-03-07T02:57:58;1.70;99.90
18260;DHT22;9256;52.236;5.712;2024-03-07T03:00:26;1.50;99.90
18260;DHT22;9256;52.236;5.712;2024-03-07T03:02:55;1.60;99.90
18260;DHT22;9256;52.236;5.712;2024-03-07T03:05:22;1.60;99.90
18260;DHT22;9256;52.236;5.712;2024-03-07T03:07:50;1.50;99.90
18260;DHT22;9256;52.236;5.712;2024-03-07T03:10:21;1.50;99.90
18260;DHT22;9256;52.236;5.712;2024-03-07T03:12:52;1.60;99.90
18260;DHT22;9256;52.236;5.712;2024-03-07T03:15:20;1.50;99.90
18260;DHT22;9256;52.236;5.712;2024-03-07T03:17:47;1.40;99.90
18260;DHT22;9256;52.236;5.712;2024-03-07T03:20:14;1.40;99.90
18260;DHT22;9256;52.236;5.712;2024-03-07T03:22:51;1.40;99.90
18260;DHT22;9256;52.236;5.712;2024-03-07T03:25:18;1.30;99.90
18260;DHT22;9256;52.236;5.712;2024-03-07T03:27:46;1.50;99.90
18260;DHT22;9256;52.236;5.712;2024-03-07T03:30:14;1.60;99.90
18260;DHT22;9256;52.236;5.712;2024-03-07T03:32:44;1.60;99.90
18260;DHT22;9256;52.236;5.712;2024-03-07T03:35:12;1.60;99.90
18260;DHT22;9256;52.236;5.712;2024-03-07T03:37:40;1.60;99.90
18260;DHT22;9256;52.236;5.712;2024-03-07T03:40:09;1.60;99.90
18260;DHT22;9256;52.236;5.712;2024-03-07T03:42:36;1.70;99.90
18260;DHT22;9256;52.236;5.712;2024-03-07T03:45:04;1.80;99.90
18260;DHT22;9256;52.236;5.712;2024-03-07T03:47:33;1.80;99.90
18260;DHT22;9256;52.236;5.712;2024-03-07T03:50:02;1.80;99.90
18260;DHT22;9256;52.236;5.712;2024-03-07T03:52:29;1.90;99.90
18260;DHT22;9256;52.236;5.712;2024-03-07T03:54:56;1.80;99.90
18260;DHT22;9256;52.236;5.712;2024-03-07T03:57:24;1.80;99.90
18260;DHT22;9256;52.236;5.712;2024-03-07T03:59:51;1.80;99.90
18260;DHT22;9256;52.236;5.712;2024-03-07T04:02:18;1.90;99.90
18260;DHT22;9256;52.236;5.712;2024-03-07T04:04:46;1.90;99.90
18260;DHT22;9256;52.236;5.712;2024-03-07T04:07:14;1.80;99.90
18260;DHT22;9256;52.236;5.712;2024-03-07T04:09:42;1.80;99.90
18260;DHT22;9256;52.236;5.712;2024-03-07T04:12:09;1.90;99.90
18260;DHT22;9256;52.236;5.712;2024-03-07T04:14:37;1.90;99.90
18260;DHT22;9256;52.236;5.712;2024-03-07T04:17:04;1.90;99.90
18260;DHT22;9256;52.236;5.712;2024-03-07T04:19:33;1.90;99.90
18260;DHT22;9256;52.236;5.712;2024-03-07T04:22:02;1.90;99.90
18260;DHT22;9256;52.236;5.712;2024-03-07T04:24:30;1.80;99.90
18260;DHT22;9256;52.236;5.712;2024-03-07T04:26:58;1.80;99.90
18260;DHT22;9256;52.236;5.712;2024-03-07T04:29:26;1.90;99.90
18260;DHT22;9256;52.236;5.712;2024-03-07T04:31:52;1.90;99.90
18260;DHT22;9256;52.236;5.712;2024-03-07T04:34:19;1.80;99.90
18260;DHT22;9256;52.236;5.712;2024-03-07T04:36:46;1.90;99.90
18260;DHT22;9256;52.236;5.712;2024-03-07T04:39:14;1.80;99.90
18260;DHT22;9256;52.236;5.712;2024-03-07T04:41:53;1.80;99.90
18260;DHT22;9256;52.236;5.712;2024-03-07T04:44:20;1.70;99.90
18260;DHT22;9256;52.236;5.712;2024-03-07T04:46:48;1.60;99.90
18260;DHT22;9256;52.236;5.712;2024-03-07T04:49:16;1.70;99.90
18260;DHT22;9256;52.236;5.712;2024-03-07T04:51:43;1.60;99.90
18260;DHT22;9256;52.236;5.712;2024-03-07T04:54:14;1.60;99.90
18260;DHT22;9256;52.236;5.712;2024-03-07T04:56:41;1.60;99.90
18260;DHT22;9256;52.236;5.712;2024-03-07T04:59:09;1.50;99.90
18260;DHT22;9256;52.236;5.712;2024-03-07T05:01:37;1.40;99.90
18260;DHT22;9256;52.236;5.712;2024-03-07T05:04:04;1.40;99.90
18260;DHT22;9256;52.236;5.712;2024-03-07T05:06:31;1.50;99.90
18260;DHT22;9256;52.236;5.712;2024-03-07T05:08:59;1.50;99.90
18260;DHT22;9256;52.236;5.712;2024-03-07T05:11:28;1.40;99.90
18260;DHT22;9256;52.236;5.712;2024-03-07T05:13:56;1.40;99.90
18260;DHT22;9256;52.236;5.712;2024-03-07T05:16:23;1.50;99.90
18260;DHT22;9256;52.236;5.712;2024-03-07T05:18:50;1.50;99.90
18260;DHT22;9256;52.236;5.712;2024-03-07T05:21:17;1.60;99.90
18260;DHT22;9256;52.236;5.712;2024-03-07T05:24:00;1.60;99.90
18260;DHT22;9256;52.236;5.712;2024-03-07T05:26:29;1.60;99.90
18260;DHT22;9256;52.236;5.712;2024-03-07T05:29:00;1.50;99.90
18260;DHT22;9256;52.236;5.712;2024-03-07T05:31:28;1.40;99.90
18260;DHT22;9256;52.236;5.712;2024-03-07T05:33:55;1.30;99.90
18260;DHT22;9256;52.236;5.712;2024-03-07T05:36:22;1.30;99.90
18260;DHT22;9256;52.236;5.712;2024-03-07T05:38:49;1.30;99.90
18260;DHT22;9256;52.236;5.712;2024-03-07T05:41:17;1.20;99.90
18260;DHT22;9256;52.236;5.712;2024-03-07T05:43:45;1.20;99.90
18260;DHT22;9256;52.236;5.712;2024-03-07T05:46:12;1.20;99.90
18260;DHT22;9256;52.236;5.712;2024-03-07T05:48:39;1.20;99.90
18260;DHT22;9256;52.236;5.712;2024-03-07T05:51:06;1.10;99.90
18260;DHT22;9256;52.236;5.712;2024-03-07T05:53:35;1.10;99.90
18260;DHT22;9256;52.236;5.712;2024-03-07T05:56:03;1.10;99.90
18260;DHT22;9256;52.236;5.712;2024-03-07T05:58:33;1.20;99.90
18260;DHT22;9256;52.236;5.712;2024-03-07T06:01:02;1.20;99.90
18260;DHT22;9256;52.236;5.712;2024-03-07T06:03:29;1.20;99.90
18260;DHT22;9256;52.236;5.712;2024-03-07T06:05:55;1.20;99.90
18260;DHT22;9256;52.236;5.712;2024-03-07T06:08:22;1.20;99.90
18260;DHT22;9256;52.236;5.712;2024-03-07T06:10:50;1.20;99.90
18260;DHT22;9256;52.236;5.712;2024-03-07T06:13:17;1.20;99.90
18260;DHT22;9256;52.236;5.712;2024-03-07T06:15:45;1.10;99.90
18260;DHT22;9256;52.236;5.712;2024-03-07T06:18:14;1.20;99.90
18260;DHT22;9256;52.236;5.712;2024-03-07T06:20:42;1.20;99.90
18260;DHT22;9256;52.236;5.712;2024-03-07T06:23:09;1.20;99.90
18260;DHT22;9256;52.236;5.712;2024-03-07T06:25:38;1.20;99.90
18260;DHT22;9256;52.236;5.712;2024-03-07T06:28:13;1.30;99.90
18260;DHT22;9256;52.236;5.712;2024-03-07T06:30:41;1.20;99.90
18260;DHT22;9256;52.236;5.712;2024-03-07T06:33:15;1.30;99.90
18260;DHT22;9256;52.236;5.712;2024-03-07T06:35:43;1.30;99.90
18260;DHT22;9256;52.236;5.712;2024-03-07T06:38:10;1.30;99.90
18260;DHT22;9256;52.236;5.712;2024-03-07T06:40:37;1.30;99.90
18260;DHT22;9256;52.236;5.712;2024-03-07T06:43:05;1.30;99.90
18260;DHT22;9256;52.236;5.712;2024-03-07T06:45:33;1.40;99.90
18260;DHT22;9256;52.236;5.712;2024-03-07T06:48:01;1.40;99.90
18260;DHT22;9256;52.236;5.712;2024-03-07T06:50:29;1.40;99.90
18260;DHT22;9256;52.236;5.712;2024-03-07T06:52:56;1.40;99.90
18260;DHT22;9256;52.236;5.712;2024-03-07T06:55:23;1.40;99.90
18260;DHT22;9256;52.236;5.712;2024-03-07T06:57:50;1.40;99.90
18260;DHT22;9256;52.236;5.712;2024-03-07T07:00:17;1.40;99.90
18260;DHT22;9256;52.236;5.712;2024-03-07T07:02:45;1.50;99.90
18260;DHT22;9256;52.236;5.712;2024-03-07T07:05:13;1.50;99.90
18260;DHT22;9256;52.236;5.712;2024-03-07T07:07:42;1.50;99.90
18260;DHT22;9256;52.236;5.712;2024-03-07T07:10:10;1.60;99.90
18260;DHT22;9256;52.236;5.712;2024-03-07T07:12:42;1.60;99.90
18260;DHT22;9256;52.236;5.712;2024-03-07T07:15:10;1.60;99.90
18260;DHT22;9256;52.236;5.712;2024-03-07T07:17:37;1.70;99.90
18260;DHT22;9256;52.236;5.712;2024-03-07T07:20:05;1.70;99.90
18260;DHT22;9256;52.236;5.712;2024-03-07T07:22:36;1.70;99.90
18260;DHT22;9256;52.236;5.712;2024-03-07T07:25:06;1.80;99.90
18260;DHT22;9256;52.236;5.712;2024-03-07T07:27:40;1.90;99.90
18260;DHT22;9256;52.236;5.712;2024-03-07T07:30:08;1.90;99.90
18260;DHT22;9256;52.236;5.712;2024-03-07T07:32:35;2.00;99.90
18260;DHT22;9256;52.236;5.712;2024-03-07T07:35:02;2.00;99.90
18260;DHT22;9256;52.236;5.712;2024-03-07T07:37:31;2.10;99.90
18260;DHT22;9256;52.236;5.712;2024-03-07T07:39:58;2.10;99.90
18260;DHT22;9256;52.236;5.712;2024-03-07T07:42:26;2.10;99.90
18260;DHT22;9256;52.236;5.712;2024-03-07T07:44:53;2.20;99.90
18260;DHT22;9256;52.236;5.712;2024-03-07T07:47:20;2.30;99.90
18260;DHT22;9256;52.236;5.712;2024-03-07T07:49:47;2.40;99.90
18260;DHT22;9256;52.236;5.712;2024-03-07T07:52:14;2.50;99.90
18260;DHT22;9256;52.236;5.712;2024-03-07T07:54:42;2.60;99.90
18260;DHT22;9256;52.236;5.712;2024-03-07T07:57:09;2.70;99.90
18260;DHT22;9256;52.236;5.712;2024-03-07T07:59:38;2.70;99.90
18260;DHT22;9256;52.236;5.712;2024-03-07T08:02:05;2.80;99.90
18260;DHT22;9256;52.236;5.712;2024-03-07T08:04:32;2.90;99.90
18260;DHT22;9256;52.236;5.712;2024-03-07T08:07:00;2.90;99.90
18260;DHT22;9256;52.236;5.712;2024-03-07T08:09:26;3.10;99.90
18260;DHT22;9256;52.236;5.712;2024-03-07T08:11:53;3.20;99.90
18260;DHT22;9256;52.236;5.712;2024-03-07T08:14:20;3.30;99.90
18260;DHT22;9256;52.236;5.712;2024-03-07T08:16:50;3.30;99.90
18260;DHT22;9256;52.236;5.712;2024-03-07T08:19:17;3.40;99.90
18260;DHT22;9256;52.236;5.712;2024-03-07T08:21:44;3.50;99.90
18260;DHT22;9256;52.236;5.712;2024-03-07T08:24:11;3.60;99.90
18260;DHT22;9256;52.236;5.712;2024-03-07T08:26:37;3.70;99.90
18260;DHT22;9256;52.236;5.712;2024-03-07T08:29:10;3.80;99.90
18260;DHT22;9256;52.236;5.712;2024-03-07T08:31:38;3.80;99.90
18260;DHT22;9256;52.236;5.712;2024-03-07T08:34:06;3.90;99.90
18260;DHT22;9256;52.236;5.712;2024-03-07T08:36:33;4.00;99.90
18260;DHT22;9256;52.236;5.712;2024-03-07T08:39:02;4.10;99.90
18260;DHT22;9256;52.236;5.712;2024-03-07T08:41:30;4.30;99.90
18260;DHT22;9256;52.236;5.712;2024-03-07T08:44:02;4.40;99.90
18260;DHT22;9256;52.236;5.712;2024-03-07T08:46:29;4.50;99.90
18260;DHT22;9256;52.236;5.712;2024-03-07T08:48:56;4.60;99.90
18260;DHT22;9256;52.236;5.712;2024-03-07T08:51:24;4.70;99.90
18260;DHT22;9256;52.236;5.712;2024-03-07T08:53:51;4.80;99.90
18260;DHT22;9256;52.236;5.712;2024-03-07T08:56:18;4.90;99.90
18260;DHT22;9256;52.236;5.712;2024-03-07T08:58:45;5.00;99.90
18260;DHT22;9256;52.236;5.712;2024-03-07T09:01:12;5.10;99.90
18260;DHT22;9256;52.236;5.712;2024-03-07T09:03:39;5.20;99.90
18260;DHT22;9256;52.236;5.712;2024-03-07T09:06:06;5.30;99.90
18260;DHT22;9256;52.236;5.712;2024-03-07T09:08:34;5.30;99.90
18260;DHT22;9256;52.236;5.712;2024-03-07T09:11:01;5.30;99.90
18260;DHT22;9256;52.236;5.712;2024-03-07T09:13:28;5.40;99.90
18260;DHT22;9256;52.236;5.712;2024-03-07T09:15:55;5.50;99.90
18260;DHT22;9256;52.236;5.712;2024-03-07T09:18:22;5.60;99.90
18260;DHT22;9256;52.236;5.712;2024-03-07T09:20:50;5.70;99.90
18260;DHT22;9256;52.236;5.712;2024-03-07T09:23:17;5.70;99.90
18260;DHT22;9256;52.236;5.712;2024-03-07T09:25:46;5.80;99.90
18260;DHT22;9256;52.236;5.712;2024-03-07T09:28:13;5.90;99.90
18260;DHT22;9256;52.236;5.712;2024-03-07T09:30:40;6.00;99.90
18260;DHT22;9256;52.236;5.712;2024-03-07T09:33:07;6.10;99.90
18260;DHT22;9256;52.236;5.712;2024-03-07T09:35:37;6.10;99.90
18260;DHT22;9256;52.236;5.712;2024-03-07T09:38:04;6.20;99.90
18260;DHT22;9256;52.236;5.712;2024-03-07T09:40:32;6.40;99.90
18260;DHT22;9256;52.236;5.712;2024-03-07T09:43:01;6.40;99.90
18260;DHT22;9256;52.236;5.712;2024-03-07T09:45:30;6.40;99.90
18260;DHT22;9256;52.236;5.712;2024-03-07T09:47:58;6.50;99.90
18260;DHT22;9256;52.236;5.712;2024-03-07T09:50:26;6.60;99.90
18260;DHT22;9256;52.236;5.712;2024-03-07T09:52:56;6.60;99.90
18260;DHT22;9256;52.236;5.712;2024-03-07T09:55:25;6.70;99.90
18260;DHT22;9256;52.236;5.712;2024-03-07T09:57:53;6.90;99.90
18260;DHT22;9256;52.236;5.712;2024-03-07T10:00:22;7.00;99.90
18260;DHT22;9256;52.236;5.712;2024-03-07T10:02:54;7.10;99.90
18260;DHT22;9256;52.236;5.712;2024-03-07T10:05:23;7.00;99.90
18260;DHT22;9256;52.236;5.712;2024-03-07T10:07:52;7.10;99.90
18260;DHT22;9256;52.236;5.712;2024-03-07T10:10:19;7.20;99.90
18260;DHT22;9256;52.236;5.712;2024-03-07T10:12:47;7.40;99.90
18260;DHT22;9256;52.236;5.712;2024-03-07T10:15:15;7.30;99.90
18260;DHT22;9256;52.236;5.712;2024-03-07T10:17:44;7.40;99.90
18260;DHT22;9256;52.236;5.712;2024-03-07T10:20:12;7.40;99.90
18260;DHT22;9256;52.236;5.712;2024-03-07T10:22:40;7.40;99.90
18260;DHT22;9256;52.236;5.712;2024-03-07T10:25:08;7.50;99.90
18260;DHT22;9256;52.236;5.712;2024-03-07T10:27:37;7.60;99.90
18260;DHT22;9256;52.236;5.712;2024-03-07T10:30:05;7.60;99.90
18260;DHT22;9256;52.236;5.712;2024-03-07T10:32:34;7.70;99.90
18260;DHT22;9256;52.236;5.712;2024-03-07T10:35:03;7.70;99.90
18260;DHT22;9256;52.236;5.712;2024-03-07T10:37:34;7.90;99.90
18260;DHT22;9256;52.236;5.712;2024-03-07T10:40:03;8.10;99.90
18260;DHT22;9256;52.236;5.712;2024-03-07T10:42:45;8.00;99.90
18260;DHT22;9256;52.236;5.712;2024-03-07T10:45:13;8.30;99.90
18260;DHT22;9256;52.236;5.712;2024-03-07T10:47:42;8.00;99.90
18260;DHT22;9256;52.236;5.712;2024-03-07T10:50:19;8.10;99.90
18260;DHT22;9256;52.236;5.712;2024-03-07T10:52:54;8.20;99.90
18260;DHT22;9256;52.236;5.712;2024-03-07T10:55:34;8.40;99.90
18260;DHT22;9256;52.236;5.712;2024-03-07T10:58:09;8.50;99.90
18260;DHT22;9256;52.236;5.712;2024-03-07T11:00:39;8.60;99.90
18260;DHT22;9256;52.236;5.712;2024-03-07T11:03:11;8.70;99.90
18260;DHT22;9256;52.236;5.712;2024-03-07T11:05:40;8.60;99.90
18260;DHT22;9256;52.236;5.712;2024-03-07T11:08:10;8.60;99.90
18260;DHT22;9256;52.236;5.712;2024-03-07T11:10:38;8.40;99.90
18260;DHT22;9256;52.236;5.712;2024-03-07T11:13:06;8.50;99.90
18260;DHT22;9256;52.236;5.712;2024-03-07T11:15:36;8.30;99.90
18260;DHT22;9256;52.236;5.712;2024-03-07T11:18:05;8.70;99.90
18260;DHT22;9256;52.236;5.712;2024-03-07T11:20:37;8.60;99.90
18260;DHT22;9256;52.236;5.712;2024-03-07T11:23:28;8.60;99.90
18260;DHT22;9256;52.236;5.712;2024-03-07T11:26:02;8.50;99.90
18260;DHT22;9256;52.236;5.712;2024-03-07T11:28:33;8.60;99.90
18260;DHT22;9256;52.236;5.712;2024-03-07T11:31:25;9.20;99.90
18260;DHT22;9256;52.236;5.712;2024-03-07T11:34:14;9.30;99.90
18260;DHT22;9256;52.236;5.712;2024-03-07T11:36:45;9.20;99.90
18260;DHT22;9256;52.236;5.712;2024-03-07T11:39:41;9.20;99.90
18260;DHT22;9256;52.236;5.712;2024-03-07T11:42:08;9.40;99.90
18260;DHT22;9256;52.236;5.712;2024-03-07T11:44:35;9.40;99.90
18260;DHT22;9256;52.236;5.712;2024-03-07T11:47:05;9.10;99.90
18260;DHT22;9256;52.236;5.712;2024-03-07T11:49:35;9.40;99.90
18260;DHT22;9256;52.236;5.712;2024-03-07T11:52:03;9.20;99.90
18260;DHT22;9256;52.236;5.712;2024-03-07T11:54:37;9.20;99.90
18260;DHT22;9256;52.236;5.712;2024-03-07T11:57:07;8.90;99.90
18260;DHT22;9256;52.236;5.712;2024-03-07T11:59:39;8.80;99.90
18260;DHT22;9256;52.236;5.712;2024-03-07T12:02:11;8.90;99.90
18260;DHT22;9256;52.236;5.712;2024-03-07T12:04:39;9.20;99.90
18260;DHT22;9256;52.236;5.712;2024-03-07T12:07:07;8.90;99.90
18260;DHT22;9256;52.236;5.712;2024-03-07T12:09:37;8.80;99.90
18260;DHT22;9256;52.236;5.712;2024-03-07T12:12:04;8.70;99.90
18260;DHT22;9256;52.236;5.712;2024-03-07T12:14:33;8.90;99.90
18260;DHT22;9256;52.236;5.712;2024-03-07T12:17:01;9.00;99.90
18260;DHT22;9256;52.236;5.712;2024-03-07T12:19:30;9.00;99.90
18260;DHT22;9256;52.236;5.712;2024-03-07T12:22:00;9.10;99.90
18260;DHT22;9256;52.236;5.712;2024-03-07T12:24:28;9.60;99.90
18260;DHT22;9256;52.236;5.712;2024-03-07T12:27:05;9.70;99.90
18260;DHT22;9256;52.236;5.712;2024-03-07T12:29:36;9.60;99.90
18260;DHT22;9256;52.236;5.712;2024-03-07T12:32:05;9.80;99.90
18260;DHT22;9256;52.236;5.712;2024-03-07T12:34:33;9.70;99.90
18260;DHT22;9256;52.236;5.712;2024-03-07T12:37:03;9.70;99.90
18260;DHT22;9256;52.236;5.712;2024-03-07T12:39:32;9.00;99.90
18260;DHT22;9256;52.236;5.712;2024-03-07T12:42:03;9.00;99.90
18260;DHT22;9256;52.236;5.712;2024-03-07T12:44:40;9.00;99.90
18260;DHT22;9256;52.236;5.712;2024-03-07T12:47:10;9.30;99.90
18260;DHT22;9256;52.236;5.712;2024-03-07T12:49:37;9.60;99.90
18260;DHT22;9256;52.236;5.712;2024-03-07T12:52:05;9.90;99.90
18260;DHT22;9256;52.236;5.712;2024-03-07T12:54:33;10.20;99.90
18260;DHT22;9256;52.236;5.712;2024-03-07T12:57:01;10.50;99.90
18260;DHT22;9256;52.236;5.712;2024-03-07T12:59:31;10.50;99.90
18260;DHT22;9256;52.236;5.712;2024-03-07T13:01:59;10.20;99.90
18260;DHT22;9256;52.236;5.712;2024-03-07T13:04:26;10.80;99.90
18260;DHT22;9256;52.236;5.712;2024-03-07T13:06:54;11.00;99.90
18260;DHT22;9256;52.236;5.712;2024-03-07T13:09:25;10.70;99.90
18260;DHT22;9256;52.236;5.712;2024-03-07T13:11:53;10.80;99.90
18260;DHT22;9256;52.236;5.712;2024-03-07T13:14:20;10.40;99.90
18260;DHT22;9256;52.236;5.712;2024-03-07T13:16:47;10.70;99.90
18260;DHT22;9256;52.236;5.712;2024-03-07T13:19:17;10.50;99.90
18260;DHT22;9256;52.236;5.712;2024-03-07T13:21:46;10.50;99.90
18260;DHT22;9256;52.236;5.712;2024-03-07T13:24:18;10.60;99.90
18260;DHT22;9256;52.236;5.712;2024-03-07T13:26:46;10.50;99.90
18260;DHT22;9256;52.236;5.712;2024-03-07T13:29:14;10.50;99.90
18260;DHT22;9256;52.236;5.712;2024-03-07T13:31:44;10.60;99.90
18260;DHT22;9256;52.236;5.712;2024-03-07T13:34:11;10.50;99.90
18260;DHT22;9256;52.236;5.712;2024-03-07T13:36:41;10.50;99.90
18260;DHT22;9256;52.236;5.712;2024-03-07T13:39:08;10.90;99.90
18260;DHT22;9256;52.236;5.712;2024-03-07T13:41:37;10.90;99.90
18260;DHT22;9256;52.236;5.712;2024-03-07T13:44:04;11.00;99.90
18260;DHT22;9256;52.236;5.712;2024-03-07T13:46:31;10.50;99.90
18260;DHT22;9256;52.236;5.712;2024-03-07T13:48:59;10.30;99.90
18260;DHT22;9256;52.236;5.712;2024-03-07T13:51:33;10.00;99.90
18260;DHT22;9256;52.236;5.712;2024-03-07T13:54:02;9.60;99.90
18260;DHT22;9256;52.236;5.712;2024-03-07T13:56:55;9.50;99.90
18260;DHT22;9256;52.236;5.712;2024-03-07T13:59:54;9.10;99.90
18260;DHT22;9256;52.236;5.712;2024-03-07T14:05:46;8.70;99.90
18260;DHT22;9256;52.236;5.712;2024-03-07T14:11:54;8.20;99.90
18260;DHT22;9256;52.236;5.712;2024-03-07T14:14:42;8.20;99.90
18260;DHT22;9256;52.236;5.712;2024-03-07T14:20:59;8.10;99.90
18260;DHT22;9256;52.236;5.712;2024-03-07T14:23:59;7.80;99.90
18260;DHT22;9256;52.236;5.712;2024-03-07T14:29:32;7.90;99.90
18260;DHT22;9256;52.236;5.712;2024-03-07T14:32:05;8.00;99.90
18260;DHT22;9256;52.236;5.712;2024-03-07T14:34:40;8.40;99.90
18260;DHT22;9256;52.236;5.712;2024-03-07T14:37:20;8.20;99.90
18260;DHT22;9256;52.236;5.712;2024-03-07T14:39:50;8.30;99.90
18260;DHT22;9256;52.236;5.712;2024-03-07T14:42:19;8.30;99.90
18260;DHT22;9256;52.236;5.712;2024-03-07T14:44:47;8.20;99.90
18260;DHT22;9256;52.236;5.712;2024-03-07T14:47:19;8.10;99.90
18260;DHT22;9256;52.236;5.712;2024-03-07T14:49:46;7.90;99.90
18260;DHT22;9256;52.236;5.712;2024-03-07T14:52:13;8.00;99.90
18260;DHT22;9256;52.236;5.712;2024-03-07T14:54:41;8.00;99.90
18260;DHT22;9256;52.236;5.712;2024-03-07T14:57:10;8.10;99.90
18260;DHT22;9256;52.236;5.712;2024-03-07T14:59:38;8.10;99.90
18260;DHT22;9256;52.236;5.712;2024-03-07T15:02:06;7.90;99.90
18260;DHT22;9256;52.236;5.712;2024-03-07T15:04:36;7.90;99.90
18260;DHT22;9256;52.236;5.712;2024-03-07T15:07:04;7.80;99.90
18260;DHT22;9256;52.236;5.712;2024-03-07T15:09:30;7.80;99.90
18260;DHT22;9256;52.236;5.712;2024-03-07T15:11:59;7.80;99.90
18260;DHT22;9256;52.236;5.712;2024-03-07T15:14:27;7.70;99.90
18260;DHT22;9256;52.236;5.712;2024-03-07T15:16:55;7.80;99.90
18260;DHT22;9256;52.236;5.712;2024-03-07T15:19:22;7.60;99.90
18260;DHT22;9256;52.236;5.712;2024-03-07T15:21:49;7.60;99.90
18260;DHT22;9256;52.236;5.712;2024-03-07T15:24:18;7.50;99.90
18260;DHT22;9256;52.236;5.712;2024-03-07T15:26:47;7.50;99.90
18260;DHT22;9256;52.236;5.712;2024-03-07T15:29:15;7.40;99.90
18260;DHT22;9256;52.236;5.712;2024-03-07T15:31:48;7.30;99.90
18260;DHT22;9256;52.236;5.712;2024-03-07T15:34:16;7.30;99.90
18260;DHT22;9256;52.236;5.712;2024-03-07T15:36:43;7.30;99.90
18260;DHT22;9256;52.236;5.712;2024-03-07T15:39:12;7.40;99.90
18260;DHT22;9256;52.236;5.712;2024-03-07T15:41:52;7.40;99.90
18260;DHT22;9256;52.236;5.712;2024-03-07T15:44:19;7.40;99.90
18260;DHT22;9256;52.236;5.712;2024-03-07T15:46:46;7.60;99.90
18260;DHT22;9256;52.236;5.712;2024-03-07T15:49:17;7.70;99.90
18260;DHT22;9256;52.236;5.712;2024-03-07T15:51:44;7.70;99.90
18260;DHT22;9256;52.236;5.712;2024-03-07T15:54:12;7.80;99.90
18260;DHT22;9256;52.236;5.712;2024-03-07T15:56:43;7.90;99.90
18260;DHT22;9256;52.236;5.712;2024-03-07T15:59:11;7.80;99.90
18260;DHT22;9256;52.236;5.712;2024-03-07T16:01:38;7.70;99.90
18260;DHT22;9256;52.236;5.712;2024-03-07T16:04:05;8.00;99.90
18260;DHT22;9256;52.236;5.712;2024-03-07T16:06:34;8.20;99.90
18260;DHT22;9256;52.236;5.712;2024-03-07T16:09:01;8.70;99.90
18260;DHT22;9256;52.236;5.712;2024-03-07T16:11:28;9.20;99.90
18260;DHT22;9256;52.236;5.712;2024-03-07T16:13:55;9.50;99.90
18260;DHT22;9256;52.236;5.712;2024-03-07T16:16:23;10.00;99.90
18260;DHT22;9256;52.236;5.712;2024-03-07T16:18:50;9.90;99.90
18260;DHT22;9256;52.236;5.712;2024-03-07T16:21:17;9.80;99.90
18260;DHT22;9256;52.236;5.712;2024-03-07T16:23:46;9.00;99.90